Boykin, South Carolina
Current Conditions -  °F | °C
As of 1:04 AM on Sunday 23 Nov 2014 (Local Time) from KSSC Reporting Station
Light Rain Light Rain  
Wind Chill:   Ceiling: 11000
Heat Index:   Visibility: 10mi
Dew Point:   Wind: 3mph
Humidity: 93%   Direction: 350°N
Pressure: 30.26"   Gusts: NA
Location:  34.1106°N, 80.4967°W
Report Text: KSSC 230604Z AUTO 35003KT 10SM -RA BKN110 OVC150 09/08 A3026 RMK AO2
Loading
Personal Weather Stations






























Interactive Weather Map New forecast layout! Learn more

10-Day Weather Forecast

Advertisements
Track Severe Weather on mobile